Accueil
Images satellite Prévisions 15 joursClimatMétéo marine Cyclones Foudre AéroportsFAQ Actualités A propos
Météo : Europe Afrique Amérique du Nord Amérique du Sud Asie Australie-Océanie Autres
Langues Contact

Biarritz, France

Anglet

latitude: 43-28N, longitude: 001-32W, altitude: 75 m


METAR: LFBZ 300200Z AUTO 03005KT 350V060 9999 OVC038 19/13 Q1021
short-TAF: périmé (50963 heures)
long-TAF: LFBZ 291700Z 2918/3018 31008KT 9999 SCT020 FM300000 06006KT 9999 BKN015

Heure: 04:25 (02:25 UTC)

Observation

Le bulletin a été fait il y a 25 minutes, à 02:00 UTC  
Vent 05 kt de nord/nord-est, variant entre nord et est/nord-est
Température 19°C
Humidité 68%
Pression 1021 hPa
Visibilité 10 km ou plus
Ciel couvert à une hauteur de 3800 ft

Changer d'unités

Prévision

Le bulletin a été fait il y a 9 heures et 10 minutes, à 17:15 UTC  
Prévision valable du 29 à 18 UTC au 30 à 18 UTC
Vent 08 kt de nord-ouest
Visibilité 10 km ou plus
Nuages épars à une hauteur de 2000 ft
A partir de 30 à 0000 UTC
Vent 06 kt de est/nord-est
Visibilité 10 km ou plus
Nuages fragmentés à une hauteur de 1500 ft
Les informations qui figurent sur ce site font l'objet d'une clause de non-responsabilité
Météo : Europe Afrique Amérique du Nord Amérique du Sud Asie Australie-Océanie Autres
Images satellite Prévisions 15 joursClimatMétéo marine Cyclones Foudre AéroportsFAQ Langues Contact Actualités A propos